sensor_id;sensor_type;location;lat;lon;timestamp;P1;durP1;ratioP1;P2;durP2;ratioP2
21727;SDS011;11026;50.560;17.852;2023-03-20T00:02:19;24.45;;;16.73;;
21727;SDS011;11026;50.560;17.852;2023-03-20T00:04:48;26.00;;;17.42;;
21727;SDS011;11026;50.560;17.852;2023-03-20T00:07:16;26.55;;;17.13;;
21727;SDS011;11026;50.560;17.852;2023-03-20T00:09:44;26.65;;;17.83;;
21727;SDS011;11026;50.560;17.852;2023-03-20T00:12:15;25.65;;;17.95;;
21727;SDS011;11026;50.560;17.852;2023-03-20T00:14:48;27.60;;;17.60;;
21727;SDS011;11026;50.560;17.852;2023-03-20T00:17:16;26.13;;;17.55;;
21727;SDS011;11026;50.560;17.852;2023-03-20T00:19:46;24.75;;;17.35;;
21727;SDS011;11026;50.560;17.852;2023-03-20T00:22:16;27.05;;;17.77;;
21727;SDS011;11026;50.560;17.852;2023-03-20T00:24:44;26.45;;;18.05;;
21727;SDS011;11026;50.560;17.852;2023-03-20T00:27:14;26.63;;;16.92;;
21727;SDS011;11026;50.560;17.852;2023-03-20T00:29:44;26.83;;;17.23;;
21727;SDS011;11026;50.560;17.852;2023-03-20T00:32:13;26.67;;;17.63;;
21727;SDS011;11026;50.560;17.852;2023-03-20T00:34:41;26.98;;;18.05;;
21727;SDS011;11026;50.560;17.852;2023-03-20T00:37:09;26.85;;;17.65;;
21727;SDS011;11026;50.560;17.852;2023-03-20T00:39:39;26.48;;;17.83;;
21727;SDS011;11026;50.560;17.852;2023-03-20T00:42:08;27.48;;;19.10;;
21727;SDS011;11026;50.560;17.852;2023-03-20T00:44:53;26.23;;;18.35;;
21727;SDS011;11026;50.560;17.852;2023-03-20T00:47:28;27.92;;;17.60;;
21727;SDS011;11026;50.560;17.852;2023-03-20T00:49:56;26.15;;;17.92;;
21727;SDS011;11026;50.560;17.852;2023-03-20T00:52:29;25.58;;;18.48;;
21727;SDS011;11026;50.560;17.852;2023-03-20T00:54:58;25.90;;;17.90;;
21727;SDS011;11026;50.560;17.852;2023-03-20T00:57:29;26.77;;;18.73;;
21727;SDS011;11026;50.560;17.852;2023-03-20T01:00:06;25.60;;;17.48;;
21727;SDS011;11026;50.560;17.852;2023-03-20T01:02:34;25.73;;;18.80;;
21727;SDS011;11026;50.560;17.852;2023-03-20T01:05:02;27.50;;;18.15;;
21727;SDS011;11026;50.560;17.852;2023-03-20T01:07:31;31.40;;;19.60;;
21727;SDS011;11026;50.560;17.852;2023-03-20T01:09:58;29.10;;;18.52;;
21727;SDS011;11026;50.560;17.852;2023-03-20T01:12:27;28.75;;;18.42;;
21727;SDS011;11026;50.560;17.852;2023-03-20T01:14:56;26.77;;;18.33;;
21727;SDS011;11026;50.560;17.852;2023-03-20T01:17:26;29.05;;;18.33;;
21727;SDS011;11026;50.560;17.852;2023-03-20T01:20:00;28.10;;;18.20;;
21727;SDS011;11026;50.560;17.852;2023-03-20T01:24:55;25.98;;;18.13;;
21727;SDS011;11026;50.560;17.852;2023-03-20T01:27:23;33.15;;;20.05;;
21727;SDS011;11026;50.560;17.852;2023-03-20T01:29:51;35.85;;;27.08;;
21727;SDS011;11026;50.560;17.852;2023-03-20T01:34:49;30.40;;;20.30;;
21727;SDS011;11026;50.560;17.852;2023-03-20T01:37:24;30.55;;;20.55;;
21727;SDS011;11026;50.560;17.852;2023-03-20T01:39:53;25.20;;;18.08;;
21727;SDS011;11026;50.560;17.852;2023-03-20T01:42:22;26.27;;;19.60;;
21727;SDS011;11026;50.560;17.852;2023-03-20T01:44:50;26.75;;;19.27;;
21727;SDS011;11026;50.560;17.852;2023-03-20T01:47:19;30.92;;;21.25;;
21727;SDS011;11026;50.560;17.852;2023-03-20T01:52:51;28.92;;;21.23;;
21727;SDS011;11026;50.560;17.852;2023-03-20T01:55:26;28.33;;;18.77;;
21727;SDS011;11026;50.560;17.852;2023-03-20T01:57:55;28.73;;;19.52;;
21727;SDS011;11026;50.560;17.852;2023-03-20T02:00:27;27.80;;;19.75;;
21727;SDS011;11026;50.560;17.852;2023-03-20T02:02:55;28.83;;;20.17;;
21727;SDS011;11026;50.560;17.852;2023-03-20T02:05:24;28.38;;;19.40;;
21727;SDS011;11026;50.560;17.852;2023-03-20T02:07:57;29.60;;;19.40;;
21727;SDS011;11026;50.560;17.852;2023-03-20T02:10:49;26.58;;;18.77;;
21727;SDS011;11026;50.560;17.852;2023-03-20T02:13:18;26.83;;;19.90;;
21727;SDS011;11026;50.560;17.852;2023-03-20T02:16:00;30.08;;;19.60;;
21727;SDS011;11026;50.560;17.852;2023-03-20T02:18:33;32.80;;;22.27;;
21727;SDS011;11026;50.560;17.852;2023-03-20T02:27:04;25.70;;;20.30;;
21727;SDS011;11026;50.560;17.852;2023-03-20T02:35:22;28.83;;;20.20;;
21727;SDS011;11026;50.560;17.852;2023-03-20T02:38:25;28.45;;;21.13;;
21727;SDS011;11026;50.560;17.852;2023-03-20T02:44:07;30.48;;;21.33;;
21727;SDS011;11026;50.560;17.852;2023-03-20T02:46:57;29.83;;;20.77;;
21727;SDS011;11026;50.560;17.852;2023-03-20T02:52:17;34.65;;;22.92;;
21727;SDS011;11026;50.560;17.852;2023-03-20T02:57:53;34.42;;;24.45;;
21727;SDS011;11026;50.560;17.852;2023-03-20T03:00:31;36.97;;;26.13;;
21727;SDS011;11026;50.560;17.852;2023-03-20T03:03:12;36.28;;;27.20;;
21727;SDS011;11026;50.560;17.852;2023-03-20T03:08:11;41.88;;;31.52;;
21727;SDS011;11026;50.560;17.852;2023-03-20T03:10:44;45.20;;;32.65;;
21727;SDS011;11026;50.560;17.852;2023-03-20T03:13:18;47.33;;;33.72;;
21727;SDS011;11026;50.560;17.852;2023-03-20T03:15:50;44.53;;;31.65;;
21727;SDS011;11026;50.560;17.852;2023-03-20T03:18:22;44.38;;;31.17;;
21727;SDS011;11026;50.560;17.852;2023-03-20T03:20:55;44.15;;;34.92;;
21727;SDS011;11026;50.560;17.852;2023-03-20T03:24:00;43.95;;;31.27;;
21727;SDS011;11026;50.560;17.852;2023-03-20T03:26:21;44.63;;;33.85;;
21727;SDS011;11026;50.560;17.852;2023-03-20T03:28:57;41.70;;;30.58;;
21727;SDS011;11026;50.560;17.852;2023-03-20T03:31:28;45.15;;;32.28;;
21727;SDS011;11026;50.560;17.852;2023-03-20T03:33:59;46.33;;;32.63;;
21727;SDS011;11026;50.560;17.852;2023-03-20T03:39:16;45.03;;;32.90;;
21727;SDS011;11026;50.560;17.852;2023-03-20T03:42:06;46.92;;;34.08;;
21727;SDS011;11026;50.560;17.852;2023-03-20T03:47:42;47.72;;;34.17;;
21727;SDS011;11026;50.560;17.852;2023-03-20T03:50:15;46.17;;;33.25;;
21727;SDS011;11026;50.560;17.852;2023-03-20T03:55:23;46.15;;;33.47;;
21727;SDS011;11026;50.560;17.852;2023-03-20T03:57:54;51.58;;;36.50;;
21727;SDS011;11026;50.560;17.852;2023-03-20T04:00:26;55.38;;;41.20;;
21727;SDS011;11026;50.560;17.852;2023-03-20T04:02:55;56.90;;;40.38;;
21727;SDS011;11026;50.560;17.852;2023-03-20T04:05:26;51.20;;;38.15;;
21727;SDS011;11026;50.560;17.852;2023-03-20T04:07:57;55.63;;;42.13;;
21727;SDS011;11026;50.560;17.852;2023-03-20T04:10:26;56.25;;;44.50;;
21727;SDS011;11026;50.560;17.852;2023-03-20T04:12:54;56.17;;;41.85;;
21727;SDS011;11026;50.560;17.852;2023-03-20T04:15:21;54.50;;;42.90;;
21727;SDS011;11026;50.560;17.852;2023-03-20T04:17:50;54.50;;;40.08;;
21727;SDS011;11026;50.560;17.852;2023-03-20T04:20:17;57.28;;;40.53;;
21727;SDS011;11026;50.560;17.852;2023-03-20T04:22:45;57.50;;;41.45;;
21727;SDS011;11026;50.560;17.852;2023-03-20T04:25:23;58.38;;;42.33;;
21727;SDS011;11026;50.560;17.852;2023-03-20T04:27:54;58.97;;;44.35;;
21727;SDS011;11026;50.560;17.852;2023-03-20T04:30:21;65.28;;;47.60;;
21727;SDS011;11026;50.560;17.852;2023-03-20T04:32:49;61.17;;;44.15;;
21727;SDS011;11026;50.560;17.852;2023-03-20T04:35:16;59.42;;;44.17;;
21727;SDS011;11026;50.560;17.852;2023-03-20T04:37:44;65.50;;;45.55;;
21727;SDS011;11026;50.560;17.852;2023-03-20T04:40:12;63.97;;;44.97;;
21727;SDS011;11026;50.560;17.852;2023-03-20T04:42:40;67.75;;;48.00;;
21727;SDS011;11026;50.560;17.852;2023-03-20T04:45:08;71.20;;;50.38;;
21727;SDS011;11026;50.560;17.852;2023-03-20T04:47:36;63.95;;;48.75;;
21727;SDS011;11026;50.560;17.852;2023-03-20T04:50:04;58.10;;;43.72;;
21727;SDS011;11026;50.560;17.852;2023-03-20T04:52:32;63.20;;;45.10;;
21727;SDS011;11026;50.560;17.852;2023-03-20T04:55:13;59.40;;;44.55;;
21727;SDS011;11026;50.560;17.852;2023-03-20T04:57:42;61.05;;;43.95;;
21727;SDS011;11026;50.560;17.852;2023-03-20T05:00:10;67.10;;;46.40;;
21727;SDS011;11026;50.560;17.852;2023-03-20T05:02:38;64.97;;;46.35;;
21727;SDS011;11026;50.560;17.852;2023-03-20T05:05:05;62.00;;;45.17;;
21727;SDS011;11026;50.560;17.852;2023-03-20T05:07:33;61.22;;;45.67;;
21727;SDS011;11026;50.560;17.852;2023-03-20T05:10:00;63.35;;;45.38;;
21727;SDS011;11026;50.560;17.852;2023-03-20T05:12:29;59.10;;;44.85;;
21727;SDS011;11026;50.560;17.852;2023-03-20T05:14:56;61.88;;;46.90;;
21727;SDS011;11026;50.560;17.852;2023-03-20T05:17:24;59.75;;;46.50;;
21727;SDS011;11026;50.560;17.852;2023-03-20T05:19:51;60.10;;;44.33;;
21727;SDS011;11026;50.560;17.852;2023-03-20T05:22:19;58.38;;;43.08;;
21727;SDS011;11026;50.560;17.852;2023-03-20T05:24:46;59.28;;;44.67;;
21727;SDS011;11026;50.560;17.852;2023-03-20T05:27:14;55.58;;;43.35;;
21727;SDS011;11026;50.560;17.852;2023-03-20T05:29:43;56.63;;;43.38;;
21727;SDS011;11026;50.560;17.852;2023-03-20T05:32:11;58.28;;;44.35;;
21727;SDS011;11026;50.560;17.852;2023-03-20T05:34:40;63.17;;;46.42;;
21727;SDS011;11026;50.560;17.852;2023-03-20T05:37:07;71.28;;;52.90;;
21727;SDS011;11026;50.560;17.852;2023-03-20T05:39:35;67.70;;;48.70;;
21727;SDS011;11026;50.560;17.852;2023-03-20T05:42:03;65.32;;;47.30;;
21727;SDS011;11026;50.560;17.852;2023-03-20T05:44:30;63.20;;;46.65;;
21727;SDS011;11026;50.560;17.852;2023-03-20T05:46:57;61.15;;;44.42;;
21727;SDS011;11026;50.560;17.852;2023-03-20T05:49:25;67.95;;;51.33;;
21727;SDS011;11026;50.560;17.852;2023-03-20T05:51:52;74.78;;;55.33;;
21727;SDS011;11026;50.560;17.852;2023-03-20T05:54:20;73.70;;;53.17;;
21727;SDS011;11026;50.560;17.852;2023-03-20T05:56:47;66.63;;;47.90;;
21727;SDS011;11026;50.560;17.852;2023-03-20T05:59:23;67.13;;;46.33;;
21727;SDS011;11026;50.560;17.852;2023-03-20T06:01:51;64.47;;;46.28;;
21727;SDS011;11026;50.560;17.852;2023-03-20T06:04:21;64.80;;;46.88;;
21727;SDS011;11026;50.560;17.852;2023-03-20T06:06:48;67.32;;;48.55;;
21727;SDS011;11026;50.560;17.852;2023-03-20T06:09:15;71.80;;;48.55;;
21727;SDS011;11026;50.560;17.852;2023-03-20T06:11:43;68.22;;;48.75;;
21727;SDS011;11026;50.560;17.852;2023-03-20T06:14:10;69.95;;;49.47;;
21727;SDS011;11026;50.560;17.852;2023-03-20T06:16:38;74.15;;;50.08;;
21727;SDS011;11026;50.560;17.852;2023-03-20T06:19:05;75.90;;;51.33;;
21727;SDS011;11026;50.560;17.852;2023-03-20T06:21:33;72.07;;;52.60;;
21727;SDS011;11026;50.560;17.852;2023-03-20T06:24:01;72.55;;;52.83;;
21727;SDS011;11026;50.560;17.852;2023-03-20T06:26:29;75.03;;;53.78;;
21727;SDS011;11026;50.560;17.852;2023-03-20T06:28:58;74.20;;;51.97;;
21727;SDS011;11026;50.560;17.852;2023-03-20T06:31:32;74.32;;;52.90;;
21727;SDS011;11026;50.560;17.852;2023-03-20T06:34:00;73.93;;;50.67;;
21727;SDS011;11026;50.560;17.852;2023-03-20T06:36:28;68.30;;;49.42;;
21727;SDS011;11026;50.560;17.852;2023-03-20T06:38:55;68.18;;;49.33;;
21727;SDS011;11026;50.560;17.852;2023-03-20T06:41:23;71.28;;;49.38;;
21727;SDS011;11026;50.560;17.852;2023-03-20T06:44:06;71.15;;;49.38;;
21727;SDS011;11026;50.560;17.852;2023-03-20T06:49:02;68.68;;;49.63;;
21727;SDS011;11026;50.560;17.852;2023-03-20T06:51:32;72.07;;;51.60;;
21727;SDS011;11026;50.560;17.852;2023-03-20T06:53:59;75.57;;;51.65;;
21727;SDS011;11026;50.560;17.852;2023-03-20T06:56:27;72.68;;;51.38;;
21727;SDS011;11026;50.560;17.852;2023-03-20T06:58:54;71.53;;;51.08;;
21727;SDS011;11026;50.560;17.852;2023-03-20T07:01:22;73.38;;;50.90;;
21727;SDS011;11026;50.560;17.852;2023-03-20T07:03:50;71.50;;;51.83;;
21727;SDS011;11026;50.560;17.852;2023-03-20T07:06:17;78.85;;;53.15;;
21727;SDS011;11026;50.560;17.852;2023-03-20T07:08:44;76.03;;;52.33;;
21727;SDS011;11026;50.560;17.852;2023-03-20T07:11:15;83.50;;;54.15;;
21727;SDS011;11026;50.560;17.852;2023-03-20T07:13:44;76.60;;;53.90;;
21727;SDS011;11026;50.560;17.852;2023-03-20T07:16:16;72.27;;;51.50;;
21727;SDS011;11026;50.560;17.852;2023-03-20T07:18:43;72.05;;;50.50;;
21727;SDS011;11026;50.560;17.852;2023-03-20T07:21:12;70.88;;;51.67;;
21727;SDS011;11026;50.560;17.852;2023-03-20T07:23:44;70.82;;;52.63;;
21727;SDS011;11026;50.560;17.852;2023-03-20T07:26:12;79.28;;;53.67;;
21727;SDS011;11026;50.560;17.852;2023-03-20T07:28:45;77.72;;;53.75;;
21727;SDS011;11026;50.560;17.852;2023-03-20T07:31:17;73.28;;;51.30;;
21727;SDS011;11026;50.560;17.852;2023-03-20T07:33:48;74.00;;;52.45;;
21727;SDS011;11026;50.560;17.852;2023-03-20T07:36:16;69.28;;;51.08;;
21727;SDS011;11026;50.560;17.852;2023-03-20T07:38:44;73.53;;;51.42;;
21727;SDS011;11026;50.560;17.852;2023-03-20T07:41:12;69.65;;;49.85;;
21727;SDS011;11026;50.560;17.852;2023-03-20T07:43:39;69.13;;;50.10;;
21727;SDS011;11026;50.560;17.852;2023-03-20T07:46:11;64.43;;;48.30;;
21727;SDS011;11026;50.560;17.852;2023-03-20T07:48:39;62.03;;;47.28;;
21727;SDS011;11026;50.560;17.852;2023-03-20T07:51:07;74.05;;;50.15;;
21727;SDS011;11026;50.560;17.852;2023-03-20T07:53:40;62.10;;;48.25;;
21727;SDS011;11026;50.560;17.852;2023-03-20T07:56:07;63.15;;;48.28;;
21727;SDS011;11026;50.560;17.852;2023-03-20T07:58:35;66.35;;;49.90;;
21727;SDS011;11026;50.560;17.852;2023-03-20T08:01:03;58.30;;;46.35;;
21727;SDS011;11026;50.560;17.852;2023-03-20T08:03:36;57.65;;;43.03;;
21727;SDS011;11026;50.560;17.852;2023-03-20T08:06:05;54.97;;;42.70;;
21727;SDS011;11026;50.560;17.852;2023-03-20T08:08:35;56.65;;;42.50;;
21727;SDS011;11026;50.560;17.852;2023-03-20T08:11:02;57.00;;;45.22;;
21727;SDS011;11026;50.560;17.852;2023-03-20T08:13:30;53.67;;;41.85;;
21727;SDS011;11026;50.560;17.852;2023-03-20T08:15:57;52.05;;;41.65;;
21727;SDS011;11026;50.560;17.852;2023-03-20T08:18:27;56.20;;;40.58;;
21727;SDS011;11026;50.560;17.852;2023-03-20T08:20:54;50.45;;;38.92;;
21727;SDS011;11026;50.560;17.852;2023-03-20T08:23:22;52.17;;;39.05;;
21727;SDS011;11026;50.560;17.852;2023-03-20T08:25:50;51.33;;;39.97;;
21727;SDS011;11026;50.560;17.852;2023-03-20T08:28:20;50.95;;;38.60;;
21727;SDS011;11026;50.560;17.852;2023-03-20T08:31:08;46.08;;;36.17;;
21727;SDS011;11026;50.560;17.852;2023-03-20T08:33:36;51.40;;;38.42;;
21727;SDS011;11026;50.560;17.852;2023-03-20T08:36:04;50.55;;;38.72;;
21727;SDS011;11026;50.560;17.852;2023-03-20T08:38:31;66.35;;;49.55;;
21727;SDS011;11026;50.560;17.852;2023-03-20T08:40:59;48.00;;;35.45;;
21727;SDS011;11026;50.560;17.852;2023-03-20T08:43:26;49.00;;;39.47;;
21727;SDS011;11026;50.560;17.852;2023-03-20T08:45:54;48.25;;;36.72;;
21727;SDS011;11026;50.560;17.852;2023-03-20T08:48:21;51.15;;;39.03;;
21727;SDS011;11026;50.560;17.852;2023-03-20T08:50:49;47.78;;;35.38;;
21727;SDS011;11026;50.560;17.852;2023-03-20T08:53:22;44.63;;;36.53;;
21727;SDS011;11026;50.560;17.852;2023-03-20T08:55:56;46.65;;;35.28;;
21727;SDS011;11026;50.560;17.852;2023-03-20T08:58:23;43.78;;;34.30;;
21727;SDS011;11026;50.560;17.852;2023-03-20T09:00:51;43.22;;;34.08;;
21727;SDS011;11026;50.560;17.852;2023-03-20T09:03:18;41.65;;;35.17;;
21727;SDS011;11026;50.560;17.852;2023-03-20T09:05:49;43.35;;;34.72;;
21727;SDS011;11026;50.560;17.852;2023-03-20T09:08:17;122.70;;;87.40;;
21727;SDS011;11026;50.560;17.852;2023-03-20T09:10:46;44.33;;;36.15;;
21727;SDS011;11026;50.560;17.852;2023-03-20T09:13:18;44.17;;;33.53;;
21727;SDS011;11026;50.560;17.852;2023-03-20T09:15:53;91.70;;;54.22;;
21727;SDS011;11026;50.560;17.852;2023-03-20T09:18:23;42.22;;;32.13;;
21727;SDS011;11026;50.560;17.852;2023-03-20T09:20:50;41.35;;;31.70;;
21727;SDS011;11026;50.560;17.852;2023-03-20T09:23:18;40.90;;;31.13;;
21727;SDS011;11026;50.560;17.852;2023-03-20T09:25:45;36.55;;;29.17;;
21727;SDS011;11026;50.560;17.852;2023-03-20T09:28:14;35.55;;;26.92;;
21727;SDS011;11026;50.560;17.852;2023-03-20T09:30:41;34.58;;;27.63;;
21727;SDS011;11026;50.560;17.852;2023-03-20T09:33:09;41.15;;;28.23;;
21727;SDS011;11026;50.560;17.852;2023-03-20T09:35:39;37.42;;;27.17;;
21727;SDS011;11026;50.560;17.852;2023-03-20T09:38:10;32.25;;;25.60;;
21727;SDS011;11026;50.560;17.852;2023-03-20T09:40:55;32.25;;;26.58;;
21727;SDS011;11026;50.560;17.852;2023-03-20T09:49:16;38.72;;;28.92;;
21727;SDS011;11026;50.560;17.852;2023-03-20T09:54:27;38.70;;;28.10;;
21727;SDS011;11026;50.560;17.852;2023-03-20T09:57:28;36.88;;;28.25;;
21727;SDS011;11026;50.560;17.852;2023-03-20T10:00:06;38.00;;;28.58;;
21727;SDS011;11026;50.560;17.852;2023-03-20T10:02:48;41.63;;;29.83;;
21727;SDS011;11026;50.560;17.852;2023-03-20T10:05:27;37.47;;;27.55;;
21727;SDS011;11026;50.560;17.852;2023-03-20T10:07:58;38.95;;;28.73;;
21727;SDS011;11026;50.560;17.852;2023-03-20T10:24:22;36.08;;;29.00;;
21727;SDS011;11026;50.560;17.852;2023-03-20T10:26:56;41.00;;;31.35;;
21727;SDS011;11026;50.560;17.852;2023-03-20T10:35:09;50.63;;;39.65;;
21727;SDS011;11026;50.560;17.852;2023-03-20T10:37:42;75.03;;;66.95;;
21727;SDS011;11026;50.560;17.852;2023-03-20T10:42:46;56.42;;;44.60;;
21727;SDS011;11026;50.560;17.852;2023-03-20T10:51:00;120.40;;;56.15;;
21727;SDS011;11026;50.560;17.852;2023-03-20T10:55:58;52.75;;;42.38;;
21727;SDS011;11026;50.560;17.852;2023-03-20T10:58:31;29.52;;;23.98;;
21727;SDS011;11026;50.560;17.852;2023-03-20T11:01:03;30.05;;;24.83;;
21727;SDS011;11026;50.560;17.852;2023-03-20T11:03:31;31.60;;;25.48;;
21727;SDS011;11026;50.560;17.852;2023-03-20T11:06:04;31.83;;;24.63;;
21727;SDS011;11026;50.560;17.852;2023-03-20T11:08:41;31.63;;;24.58;;
21727;SDS011;11026;50.560;17.852;2023-03-20T11:11:14;33.60;;;27.00;;
21727;SDS011;11026;50.560;17.852;2023-03-20T11:13:48;37.38;;;29.90;;
21727;SDS011;11026;50.560;17.852;2023-03-20T11:16:20;35.85;;;28.70;;
21727;SDS011;11026;50.560;17.852;2023-03-20T11:18:50;37.25;;;28.55;;
21727;SDS011;11026;50.560;17.852;2023-03-20T11:21:23;31.85;;;26.02;;
21727;SDS011;11026;50.560;17.852;2023-03-20T11:23:53;33.67;;;26.23;;
21727;SDS011;11026;50.560;17.852;2023-03-20T11:29:03;84.07;;;56.97;;
21727;SDS011;11026;50.560;17.852;2023-03-20T11:31:53;37.90;;;29.08;;
21727;SDS011;11026;50.560;17.852;2023-03-20T11:34:22;34.88;;;27.75;;
21727;SDS011;11026;50.560;17.852;2023-03-20T11:36:54;35.28;;;28.48;;
21727;SDS011;11026;50.560;17.852;2023-03-20T11:42:54;59.00;;;42.70;;
21727;SDS011;11026;50.560;17.852;2023-03-20T11:46:11;51.10;;;32.95;;
21727;SDS011;11026;50.560;17.852;2023-03-20T11:48:45;45.63;;;32.00;;
21727;SDS011;11026;50.560;17.852;2023-03-20T11:51:32;37.55;;;28.98;;
21727;SDS011;11026;50.560;17.852;2023-03-20T11:54:02;36.78;;;28.38;;
21727;SDS011;11026;50.560;17.852;2023-03-20T11:56:35;36.55;;;29.52;;
21727;SDS011;11026;50.560;17.852;2023-03-20T12:01:51;37.67;;;29.63;;
21727;SDS011;11026;50.560;17.852;2023-03-20T12:09:46;59.15;;;41.63;;
21727;SDS011;11026;50.560;17.852;2023-03-20T12:51:45;19.85;;;12.07;;
21727;SDS011;11026;50.560;17.852;2023-03-20T12:53:56;16.13;;;11.98;;
21727;SDS011;11026;50.560;17.852;2023-03-20T12:56:46;19.10;;;14.00;;
21727;SDS011;11026;50.560;17.852;2023-03-20T13:02:24;12.68;;;10.75;;
21727;SDS011;11026;50.560;17.852;2023-03-20T13:05:06;10.07;;;8.13;;
21727;SDS011;11026;50.560;17.852;2023-03-20T13:10:20;37.13;;;25.73;;
21727;SDS011;11026;50.560;17.852;2023-03-20T13:12:53;12.38;;;8.82;;
21727;SDS011;11026;50.560;17.852;2023-03-20T13:21:31;10.20;;;8.00;;
21727;SDS011;11026;50.560;17.852;2023-03-20T13:24:21;10.10;;;8.23;;
21727;SDS011;11026;50.560;17.852;2023-03-20T13:29:50;12.15;;;9.45;;
21727;SDS011;11026;50.560;17.852;2023-03-20T13:37:43;18.40;;;12.05;;
21727;SDS011;11026;50.560;17.852;2023-03-20T13:45:40;23.30;;;19.70;;
21727;SDS011;11026;50.560;17.852;2023-03-20T13:54:00;14.30;;;12.48;;
21727;SDS011;11026;50.560;17.852;2023-03-20T15:09:22;14.70;;;13.10;;
21727;SDS011;11026;50.560;17.852;2023-03-20T15:11:53;16.40;;;14.52;;
21727;SDS011;11026;50.560;17.852;2023-03-20T15:14:42;17.67;;;15.40;;
21727;SDS011;11026;50.560;17.852;2023-03-20T15:17:20;18.13;;;16.08;;
21727;SDS011;11026;50.560;17.852;2023-03-20T15:19:50;17.98;;;15.00;;
21727;SDS011;11026;50.560;17.852;2023-03-20T15:22:24;20.33;;;15.25;;
21727;SDS011;11026;50.560;17.852;2023-03-20T15:24:52;17.17;;;13.88;;
21727;SDS011;11026;50.560;17.852;2023-03-20T15:27:27;18.33;;;13.80;;
21727;SDS011;11026;50.560;17.852;2023-03-20T15:32:24;15.55;;;13.95;;
21727;SDS011;11026;50.560;17.852;2023-03-20T15:34:53;23.50;;;18.15;;
21727;SDS011;11026;50.560;17.852;2023-03-20T15:37:22;22.33;;;17.90;;
21727;SDS011;11026;50.560;17.852;2023-03-20T15:39:52;22.20;;;19.80;;
21727;SDS011;11026;50.560;17.852;2023-03-20T15:42:23;26.35;;;22.83;;
21727;SDS011;11026;50.560;17.852;2023-03-20T15:44:57;20.98;;;17.95;;
21727;SDS011;11026;50.560;17.852;2023-03-20T15:47:25;20.83;;;18.52;;
21727;SDS011;11026;50.560;17.852;2023-03-20T15:49:57;28.70;;;22.92;;
21727;SDS011;11026;50.560;17.852;2023-03-20T15:53:05;19.92;;;17.85;;
21727;SDS011;11026;50.560;17.852;2023-03-20T15:55:27;26.23;;;23.38;;
21727;SDS011;11026;50.560;17.852;2023-03-20T15:57:56;22.23;;;19.83;;
21727;SDS011;11026;50.560;17.852;2023-03-20T16:00:38;20.27;;;18.02;;
21727;SDS011;11026;50.560;17.852;2023-03-20T16:03:16;20.85;;;18.25;;
21727;SDS011;11026;50.560;17.852;2023-03-20T16:05:47;23.20;;;17.92;;
21727;SDS011;11026;50.560;17.852;2023-03-20T16:08:29;17.23;;;14.43;;
21727;SDS011;11026;50.560;17.852;2023-03-20T16:11:00;18.23;;;16.00;;
21727;SDS011;11026;50.560;17.852;2023-03-20T16:13:39;24.17;;;19.65;;
21727;SDS011;11026;50.560;17.852;2023-03-20T16:16:41;51.40;;;38.03;;
21727;SDS011;11026;50.560;17.852;2023-03-20T16:19:04;43.25;;;24.50;;
21727;SDS011;11026;50.560;17.852;2023-03-20T16:21:38;21.45;;;16.10;;
21727;SDS011;11026;50.560;17.852;2023-03-20T16:24:14;17.58;;;14.85;;
21727;SDS011;11026;50.560;17.852;2023-03-20T16:26:48;16.67;;;13.90;;
21727;SDS011;11026;50.560;17.852;2023-03-20T16:29:20;26.20;;;22.17;;
21727;SDS011;11026;50.560;17.852;2023-03-20T16:31:57;92.80;;;53.28;;
21727;SDS011;11026;50.560;17.852;2023-03-20T16:34:31;41.58;;;20.65;;
21727;SDS011;11026;50.560;17.852;2023-03-20T16:37:08;14.23;;;10.80;;
21727;SDS011;11026;50.560;17.852;2023-03-20T16:40:01;44.28;;;18.00;;
21727;SDS011;11026;50.560;17.852;2023-03-20T16:42:45;35.75;;;15.63;;
21727;SDS011;11026;50.560;17.852;2023-03-20T16:45:19;23.92;;;13.70;;
21727;SDS011;11026;50.560;17.852;2023-03-20T16:47:50;19.50;;;12.38;;
21727;SDS011;11026;50.560;17.852;2023-03-20T16:53:16;20.08;;;18.13;;
21727;SDS011;11026;50.560;17.852;2023-03-20T16:55:50;13.20;;;11.18;;
21727;SDS011;11026;50.560;17.852;2023-03-20T16:58:28;33.10;;;30.17;;
21727;SDS011;11026;50.560;17.852;2023-03-20T17:00:59;16.27;;;12.48;;
21727;SDS011;11026;50.560;17.852;2023-03-20T17:03:34;21.73;;;18.30;;
21727;SDS011;11026;50.560;17.852;2023-03-20T17:06:23;9.50;;;8.50;;
21727;SDS011;11026;50.560;17.852;2023-03-20T17:11:44;17.17;;;11.18;;
21727;SDS011;11026;50.560;17.852;2023-03-20T17:14:15;11.23;;;10.13;;
21727;SDS011;11026;50.560;17.852;2023-03-20T17:16:43;18.65;;;16.05;;
21727;SDS011;11026;50.560;17.852;2023-03-20T17:19:15;15.55;;;13.15;;
21727;SDS011;11026;50.560;17.852;2023-03-20T17:21:50;14.10;;;11.88;;
21727;SDS011;11026;50.560;17.852;2023-03-20T17:24:18;10.40;;;9.30;;
21727;SDS011;11026;50.560;17.852;2023-03-20T17:26:48;13.98;;;12.20;;
21727;SDS011;11026;50.560;17.852;2023-03-20T17:29:19;13.25;;;11.85;;
21727;SDS011;11026;50.560;17.852;2023-03-20T17:31:47;13.32;;;12.02;;
21727;SDS011;11026;50.560;17.852;2023-03-20T17:34:16;13.35;;;11.95;;
21727;SDS011;11026;50.560;17.852;2023-03-20T17:36:46;13.45;;;12.05;;
21727;SDS011;11026;50.560;17.852;2023-03-20T17:39:18;14.43;;;12.75;;
21727;SDS011;11026;50.560;17.852;2023-03-20T17:41:47;15.50;;;13.90;;
21727;SDS011;11026;50.560;17.852;2023-03-20T17:44:14;16.08;;;13.80;;
21727;SDS011;11026;50.560;17.852;2023-03-20T17:46:43;15.18;;;13.68;;
21727;SDS011;11026;50.560;17.852;2023-03-20T17:49:25;13.60;;;11.93;;
21727;SDS011;11026;50.560;17.852;2023-03-20T17:51:54;14.88;;;13.40;;
21727;SDS011;11026;50.560;17.852;2023-03-20T17:54:22;13.77;;;12.30;;
21727;SDS011;11026;50.560;17.852;2023-03-20T17:56:49;13.55;;;11.98;;
21727;SDS011;11026;50.560;17.852;2023-03-20T17:59:17;13.90;;;12.48;;
21727;SDS011;11026;50.560;17.852;2023-03-20T18:01:45;13.68;;;12.38;;
21727;SDS011;11026;50.560;17.852;2023-03-20T18:04:14;15.13;;;13.57;;
21727;SDS011;11026;50.560;17.852;2023-03-20T18:09:23;18.63;;;16.63;;
21727;SDS011;11026;50.560;17.852;2023-03-20T18:11:51;24.58;;;19.33;;
21727;SDS011;11026;50.560;17.852;2023-03-20T18:14:20;53.85;;;41.70;;
21727;SDS011;11026;50.560;17.852;2023-03-20T18:30:21;28.58;;;22.67;;
21727;SDS011;11026;50.560;17.852;2023-03-20T18:32:53;30.35;;;23.23;;
21727;SDS011;11026;50.560;17.852;2023-03-20T18:35:22;29.10;;;24.35;;
21727;SDS011;11026;50.560;17.852;2023-03-20T18:37:50;44.80;;;30.90;;
21727;SDS011;11026;50.560;17.852;2023-03-20T18:40:20;52.63;;;38.38;;
21727;SDS011;11026;50.560;17.852;2023-03-20T18:42:56;35.80;;;25.88;;
21727;SDS011;11026;50.560;17.852;2023-03-20T18:45:26;36.45;;;25.08;;
21727;SDS011;11026;50.560;17.852;2023-03-20T19:01:26;33.20;;;25.35;;
21727;SDS011;11026;50.560;17.852;2023-03-20T19:03:55;34.20;;;25.92;;
21727;SDS011;11026;50.560;17.852;2023-03-20T19:06:24;31.67;;;26.08;;
21727;SDS011;11026;50.560;17.852;2023-03-20T19:08:52;32.00;;;24.60;;
21727;SDS011;11026;50.560;17.852;2023-03-20T19:11:27;33.75;;;24.23;;